sensor_id;sensor_type;location;lat;lon;timestamp;temperature;humidity
75170;SHT31;63749;49.186;9.222;2024-02-21T00:01:37;7.82;83.50
75170;SHT31;63749;49.186;9.222;2024-02-21T00:04:02;7.86;83.23
75170;SHT31;63749;49.186;9.222;2024-02-21T00:06:28;7.80;83.24
75170;SHT31;63749;49.186;9.222;2024-02-21T00:08:53;7.83;83.38
75170;SHT31;63749;49.186;9.222;2024-02-21T00:11:18;7.77;83.18
75170;SHT31;63749;49.186;9.222;2024-02-21T00:13:44;7.82;83.18
75170;SHT31;63749;49.186;9.222;2024-02-21T00:16:09;7.83;83.08
75170;SHT31;63749;49.186;9.222;2024-02-21T00:18:36;7.87;82.81
75170;SHT31;63749;49.186;9.222;2024-02-21T00:21:01;7.89;82.83
75170;SHT31;63749;49.186;9.222;2024-02-21T00:23:27;7.89;82.98
75170;SHT31;63749;49.186;9.222;2024-02-21T00:25:53;7.79;83.09
75170;SHT31;63749;49.186;9.222;2024-02-21T00:28:18;7.82;83.01
75170;SHT31;63749;49.186;9.222;2024-02-21T00:30:44;7.91;82.40
75170;SHT31;63749;49.186;9.222;2024-02-21T00:33:09;7.87;82.50
75170;SHT31;63749;49.186;9.222;2024-02-21T00:35:35;7.89;82.62
75170;SHT31;63749;49.186;9.222;2024-02-21T00:38:00;7.90;82.50
75170;SHT31;63749;49.186;9.222;2024-02-21T00:40:25;7.91;82.45
75170;SHT31;63749;49.186;9.222;2024-02-21T00:42:51;7.95;82.42
75170;SHT31;63749;49.186;9.222;2024-02-21T00:45:16;7.87;82.82
75170;SHT31;63749;49.186;9.222;2024-02-21T00:47:41;7.80;83.20
75170;SHT31;63749;49.186;9.222;2024-02-21T00:50:07;7.77;83.33
75170;SHT31;63749;49.186;9.222;2024-02-21T00:52:33;7.74;83.60
75170;SHT31;63749;49.186;9.222;2024-02-21T00:54:58;7.79;83.25
75170;SHT31;63749;49.186;9.222;2024-02-21T00:57:24;7.80;83.32
75170;SHT31;63749;49.186;9.222;2024-02-21T00:59:49;7.74;83.33
75170;SHT31;63749;49.186;9.222;2024-02-21T01:02:14;7.74;83.39
75170;SHT31;63749;49.186;9.222;2024-02-21T01:04:40;7.72;83.22
75170;SHT31;63749;49.186;9.222;2024-02-21T01:07:05;7.76;83.02
75170;SHT31;63749;49.186;9.222;2024-02-21T01:09:30;7.72;82.99
75170;SHT31;63749;49.186;9.222;2024-02-21T01:11:56;7.69;83.42
75170;SHT31;63749;49.186;9.222;2024-02-21T01:14:21;7.65;83.57
75170;SHT31;63749;49.186;9.222;2024-02-21T01:16:47;7.65;83.32
75170;SHT31;63749;49.186;9.222;2024-02-21T01:19:12;7.63;83.57
75170;SHT31;63749;49.186;9.222;2024-02-21T01:21:37;7.65;83.35
75170;SHT31;63749;49.186;9.222;2024-02-21T01:24:03;7.66;83.24
75170;SHT31;63749;49.186;9.222;2024-02-21T01:26:28;7.66;83.27
75170;SHT31;63749;49.186;9.222;2024-02-21T01:28:53;7.63;83.53
75170;SHT31;63749;49.186;9.222;2024-02-21T01:31:19;7.66;83.33
75170;SHT31;63749;49.186;9.222;2024-02-21T01:33:45;7.65;83.29
75170;SHT31;63749;49.186;9.222;2024-02-21T01:36:10;7.69;83.16
75170;SHT31;63749;49.186;9.222;2024-02-21T01:38:36;7.72;83.11
75170;SHT31;63749;49.186;9.222;2024-02-21T01:41:01;7.73;83.23
75170;SHT31;63749;49.186;9.222;2024-02-21T01:43:26;7.84;82.64
75170;SHT31;63749;49.186;9.222;2024-02-21T01:45:53;7.82;82.97
75170;SHT31;63749;49.186;9.222;2024-02-21T01:48:20;7.90;82.43
75170;SHT31;63749;49.186;9.222;2024-02-21T01:50:46;7.95;82.45
75170;SHT31;63749;49.186;9.222;2024-02-21T01:53:17;8.01;82.07
75170;SHT31;63749;49.186;9.222;2024-02-21T01:55:47;8.07;81.86
75170;SHT31;63749;49.186;9.222;2024-02-21T01:58:16;8.01;82.41
75170;SHT31;63749;49.186;9.222;2024-02-21T02:00:43;8.10;82.40
75170;SHT31;63749;49.186;9.222;2024-02-21T02:03:12;8.15;83.00
75170;SHT31;63749;49.186;9.222;2024-02-21T02:05:49;8.01;83.93
75170;SHT31;63749;49.186;9.222;2024-02-21T02:08:18;7.94;84.69
75170;SHT31;63749;49.186;9.222;2024-02-21T02:10:44;7.89;85.03
75170;SHT31;63749;49.186;9.222;2024-02-21T02:13:11;7.87;85.39
75170;SHT31;63749;49.186;9.222;2024-02-21T02:15:41;7.82;85.78
75170;SHT31;63749;49.186;9.222;2024-02-21T02:18:06;7.84;85.65
75170;SHT31;63749;49.186;9.222;2024-02-21T02:20:32;7.80;86.02
75170;SHT31;63749;49.186;9.222;2024-02-21T02:25:43;7.76;86.63
75170;SHT31;63749;49.186;9.222;2024-02-21T02:28:09;7.74;86.04
75170;SHT31;63749;49.186;9.222;2024-02-21T02:30:37;7.73;86.51
75170;SHT31;63749;49.186;9.222;2024-02-21T02:33:05;7.69;86.47
75170;SHT31;63749;49.186;9.222;2024-02-21T02:35:31;7.72;86.26
75170;SHT31;63749;49.186;9.222;2024-02-21T02:37:57;7.67;86.92
75170;SHT31;63749;49.186;9.222;2024-02-21T02:40:23;7.70;86.64
75170;SHT31;63749;49.186;9.222;2024-02-21T02:42:49;7.73;86.68
75170;SHT31;63749;49.186;9.222;2024-02-21T02:45:15;7.65;87.27
75170;SHT31;63749;49.186;9.222;2024-02-21T02:47:40;7.62;87.36
75170;SHT31;63749;49.186;9.222;2024-02-21T02:50:07;7.63;87.51
75170;SHT31;63749;49.186;9.222;2024-02-21T02:52:32;7.63;87.61
75170;SHT31;63749;49.186;9.222;2024-02-21T02:54:58;7.59;88.04
75170;SHT31;63749;49.186;9.222;2024-02-21T02:57:23;7.58;88.26
75170;SHT31;63749;49.186;9.222;2024-02-21T02:59:50;7.55;88.66
75170;SHT31;63749;49.186;9.222;2024-02-21T03:02:15;7.53;88.38
75170;SHT31;63749;49.186;9.222;2024-02-21T03:04:41;7.63;87.70
75170;SHT31;63749;49.186;9.222;2024-02-21T03:07:06;7.61;87.80
75170;SHT31;63749;49.186;9.222;2024-02-21T03:09:33;7.72;86.96
75170;SHT31;63749;49.186;9.222;2024-02-21T03:11:58;7.61;87.57
75170;SHT31;63749;49.186;9.222;2024-02-21T03:14:32;7.49;88.36
75170;SHT31;63749;49.186;9.222;2024-02-21T03:16:58;7.42;88.15
75170;SHT31;63749;49.186;9.222;2024-02-21T03:19:24;7.43;87.93
75170;SHT31;63749;49.186;9.222;2024-02-21T03:21:50;7.36;88.01
75170;SHT31;63749;49.186;9.222;2024-02-21T03:24:19;7.35;88.18
75170;SHT31;63749;49.186;9.222;2024-02-21T03:26:45;7.31;88.19
75170;SHT31;63749;49.186;9.222;2024-02-21T03:29:13;7.36;87.81
75170;SHT31;63749;49.186;9.222;2024-02-21T03:31:38;7.42;87.60
75170;SHT31;63749;49.186;9.222;2024-02-21T03:34:04;7.42;87.60
75170;SHT31;63749;49.186;9.222;2024-02-21T03:36:29;7.42;87.97
75170;SHT31;63749;49.186;9.222;2024-02-21T03:38:55;7.41;87.95
75170;SHT31;63749;49.186;9.222;2024-02-21T03:41:21;7.34;87.79
75170;SHT31;63749;49.186;9.222;2024-02-21T03:43:46;7.29;87.81
75170;SHT31;63749;49.186;9.222;2024-02-21T03:46:11;7.22;88.37
75170;SHT31;63749;49.186;9.222;2024-02-21T03:48:37;7.16;88.53
75170;SHT31;63749;49.186;9.222;2024-02-21T03:51:08;7.12;88.57
75170;SHT31;63749;49.186;9.222;2024-02-21T03:53:33;7.07;88.81
75170;SHT31;63749;49.186;9.222;2024-02-21T03:56:02;7.04;88.33
75170;SHT31;63749;49.186;9.222;2024-02-21T03:58:29;7.04;88.09
75170;SHT31;63749;49.186;9.222;2024-02-21T04:00:55;6.95;88.44
75170;SHT31;63749;49.186;9.222;2024-02-21T04:03:20;6.90;88.47
75170;SHT31;63749;49.186;9.222;2024-02-21T04:05:46;6.83;88.68
75170;SHT31;63749;49.186;9.222;2024-02-21T04:08:11;6.76;88.85
75170;SHT31;63749;49.186;9.222;2024-02-21T04:10:37;6.79;88.77
75170;SHT31;63749;49.186;9.222;2024-02-21T04:13:03;6.74;88.77
75170;SHT31;63749;49.186;9.222;2024-02-21T04:15:29;6.72;88.74
75170;SHT31;63749;49.186;9.222;2024-02-21T04:17:54;6.74;88.82
75170;SHT31;63749;49.186;9.222;2024-02-21T04:20:19;6.73;88.60
75170;SHT31;63749;49.186;9.222;2024-02-21T04:22:45;6.79;88.31
75170;SHT31;63749;49.186;9.222;2024-02-21T04:25:11;6.87;87.96
75170;SHT31;63749;49.186;9.222;2024-02-21T04:27:39;6.79;88.19
75170;SHT31;63749;49.186;9.222;2024-02-21T04:30:06;6.72;88.55
75170;SHT31;63749;49.186;9.222;2024-02-21T04:32:31;6.70;88.60
75170;SHT31;63749;49.186;9.222;2024-02-21T04:34:57;6.73;88.07
75170;SHT31;63749;49.186;9.222;2024-02-21T04:37:22;6.80;87.76
75170;SHT31;63749;49.186;9.222;2024-02-21T04:39:50;6.77;88.03
75170;SHT31;63749;49.186;9.222;2024-02-21T04:42:16;6.64;88.31
75170;SHT31;63749;49.186;9.222;2024-02-21T04:44:41;6.60;88.50
75170;SHT31;63749;49.186;9.222;2024-02-21T04:47:07;6.66;88.46
75170;SHT31;63749;49.186;9.222;2024-02-21T04:49:33;6.77;88.08
75170;SHT31;63749;49.186;9.222;2024-02-21T04:51:58;6.79;88.19
75170;SHT31;63749;49.186;9.222;2024-02-21T04:54:24;6.73;88.44
75170;SHT31;63749;49.186;9.222;2024-02-21T04:56:49;6.70;88.57
75170;SHT31;63749;49.186;9.222;2024-02-21T04:59:15;6.67;88.88
75170;SHT31;63749;49.186;9.222;2024-02-21T05:01:40;6.57;88.94
75170;SHT31;63749;49.186;9.222;2024-02-21T05:04:05;6.39;89.65
75170;SHT31;63749;49.186;9.222;2024-02-21T05:06:31;6.24;90.28
75170;SHT31;63749;49.186;9.222;2024-02-21T05:08:57;6.14;90.49
75170;SHT31;63749;49.186;9.222;2024-02-21T05:11:23;6.09;90.61
75170;SHT31;63749;49.186;9.222;2024-02-21T05:13:48;6.06;90.63
75170;SHT31;63749;49.186;9.222;2024-02-21T05:16:14;5.97;90.84
75170;SHT31;63749;49.186;9.222;2024-02-21T05:18:40;5.85;90.96
75170;SHT31;63749;49.186;9.222;2024-02-21T05:21:05;5.79;91.23
75170;SHT31;63749;49.186;9.222;2024-02-21T05:23:31;5.75;91.47
75170;SHT31;63749;49.186;9.222;2024-02-21T05:25:56;5.68;91.79
75170;SHT31;63749;49.186;9.222;2024-02-21T05:28:21;5.60;91.92
75170;SHT31;63749;49.186;9.222;2024-02-21T05:30:47;5.56;92.12
75170;SHT31;63749;49.186;9.222;2024-02-21T05:33:12;5.56;92.27
75170;SHT31;63749;49.186;9.222;2024-02-21T05:35:39;5.51;92.26
75170;SHT31;63749;49.186;9.222;2024-02-21T05:38:04;5.51;92.28
75170;SHT31;63749;49.186;9.222;2024-02-21T05:40:37;5.46;92.26
75170;SHT31;63749;49.186;9.222;2024-02-21T05:43:04;5.47;92.20
75170;SHT31;63749;49.186;9.222;2024-02-21T05:45:32;5.50;92.14
75170;SHT31;63749;49.186;9.222;2024-02-21T05:47:57;5.57;91.92
75170;SHT31;63749;49.186;9.222;2024-02-21T05:50:22;5.63;91.69
75170;SHT31;63749;49.186;9.222;2024-02-21T05:52:51;5.61;91.79
75170;SHT31;63749;49.186;9.222;2024-02-21T05:55:16;5.58;91.74
75170;SHT31;63749;49.186;9.222;2024-02-21T05:57:42;5.46;91.93
75170;SHT31;63749;49.186;9.222;2024-02-21T06:00:07;5.46;91.96
75170;SHT31;63749;49.186;9.222;2024-02-21T06:02:33;5.42;92.25
75170;SHT31;63749;49.186;9.222;2024-02-21T06:04:58;5.40;92.31
75170;SHT31;63749;49.186;9.222;2024-02-21T06:07:23;5.39;92.36
75170;SHT31;63749;49.186;9.222;2024-02-21T06:09:49;5.35;92.42
75170;SHT31;63749;49.186;9.222;2024-02-21T06:12:14;5.25;92.91
75170;SHT31;63749;49.186;9.222;2024-02-21T06:14:39;5.15;93.04
75170;SHT31;63749;49.186;9.222;2024-02-21T06:17:05;5.08;93.33
75170;SHT31;63749;49.186;9.222;2024-02-21T06:19:30;5.00;93.80
75170;SHT31;63749;49.186;9.222;2024-02-21T06:21:55;4.92;93.71
75170;SHT31;63749;49.186;9.222;2024-02-21T06:24:21;5.04;94.67
75170;SHT31;63749;49.186;9.222;2024-02-21T06:26:47;5.25;93.86
75170;SHT31;63749;49.186;9.222;2024-02-21T06:29:12;5.27;93.80
75170;SHT31;63749;49.186;9.222;2024-02-21T06:31:40;5.32;93.55
75170;SHT31;63749;49.186;9.222;2024-02-21T06:34:05;5.37;93.18
75170;SHT31;63749;49.186;9.222;2024-02-21T06:36:31;5.50;92.71
75170;SHT31;63749;49.186;9.222;2024-02-21T06:38:56;5.70;92.36
75170;SHT31;63749;49.186;9.222;2024-02-21T06:41:22;5.64;91.96
75170;SHT31;63749;49.186;9.222;2024-02-21T06:43:47;5.77;92.36
75170;SHT31;63749;49.186;9.222;2024-02-21T06:46:26;5.95;91.86
75170;SHT31;63749;49.186;9.222;2024-02-21T06:48:52;5.98;91.44
75170;SHT31;63749;49.186;9.222;2024-02-21T06:51:18;5.99;91.09
75170;SHT31;63749;49.186;9.222;2024-02-21T06:53:44;6.01;90.85
75170;SHT31;63749;49.186;9.222;2024-02-21T06:56:09;6.01;90.60
75170;SHT31;63749;49.186;9.222;2024-02-21T06:58:35;6.08;89.82
75170;SHT31;63749;49.186;9.222;2024-02-21T07:01:01;6.22;89.96
75170;SHT31;63749;49.186;9.222;2024-02-21T07:03:27;6.22;89.94
75170;SHT31;63749;49.186;9.222;2024-02-21T07:05:52;6.19;89.71
75170;SHT31;63749;49.186;9.222;2024-02-21T07:08:17;6.26;89.27
75170;SHT31;63749;49.186;9.222;2024-02-21T07:10:43;6.30;88.97
75170;SHT31;63749;49.186;9.222;2024-02-21T07:13:08;6.30;88.93
75170;SHT31;63749;49.186;9.222;2024-02-21T07:15:34;6.37;88.81
75170;SHT31;63749;49.186;9.222;2024-02-21T07:17:59;6.40;88.46
75170;SHT31;63749;49.186;9.222;2024-02-21T07:20:24;6.37;88.27
75170;SHT31;63749;49.186;9.222;2024-02-21T07:22:50;6.37;88.28
75170;SHT31;63749;49.186;9.222;2024-02-21T07:25:15;6.49;88.26
75170;SHT31;63749;49.186;9.222;2024-02-21T07:27:41;6.62;87.68
75170;SHT31;63749;49.186;9.222;2024-02-21T07:30:07;6.66;87.55
75170;SHT31;63749;49.186;9.222;2024-02-21T07:32:32;6.74;87.32
75170;SHT31;63749;49.186;9.222;2024-02-21T07:34:58;7.03;88.62
75170;SHT31;63749;49.186;9.222;2024-02-21T07:37:23;7.26;86.75
75170;SHT31;63749;49.186;9.222;2024-02-21T07:39:48;7.58;87.87
75170;SHT31;63749;49.186;9.222;2024-02-21T07:42:14;7.73;86.32
75170;SHT31;63749;49.186;9.222;2024-02-21T07:44:40;8.04;85.68
75170;SHT31;63749;49.186;9.222;2024-02-21T07:47:06;8.01;83.95
75170;SHT31;63749;49.186;9.222;2024-02-21T07:49:32;8.55;86.08
75170;SHT31;63749;49.186;9.222;2024-02-21T07:52:00;8.11;82.78
75170;SHT31;63749;49.186;9.222;2024-02-21T07:54:25;8.01;82.72
75170;SHT31;63749;49.186;9.222;2024-02-21T07:56:51;8.18;82.96
75170;SHT31;63749;49.186;9.222;2024-02-21T07:59:16;8.17;82.04
75170;SHT31;63749;49.186;9.222;2024-02-21T08:01:42;8.30;80.90
75170;SHT31;63749;49.186;9.222;2024-02-21T08:04:08;8.35;81.43
75170;SHT31;63749;49.186;9.222;2024-02-21T08:06:33;8.48;80.60
75170;SHT31;63749;49.186;9.222;2024-02-21T08:08:59;8.51;79.59
75170;SHT31;63749;49.186;9.222;2024-02-21T08:11:25;8.44;79.79
75170;SHT31;63749;49.186;9.222;2024-02-21T08:13:50;8.51;79.44
75170;SHT31;63749;49.186;9.222;2024-02-21T08:16:16;8.65;78.57
75170;SHT31;63749;49.186;9.222;2024-02-21T08:18:44;8.59;79.17
75170;SHT31;63749;49.186;9.222;2024-02-21T08:21:09;8.63;78.69
75170;SHT31;63749;49.186;9.222;2024-02-21T08:23:34;8.73;78.83
75170;SHT31;63749;49.186;9.222;2024-02-21T08:26:03;8.86;77.92
75170;SHT31;63749;49.186;9.222;2024-02-21T08:28:29;9.02;77.68
75170;SHT31;63749;49.186;9.222;2024-02-21T08:30:54;8.90;77.95
75170;SHT31;63749;49.186;9.222;2024-02-21T08:33:19;8.97;77.50
75170;SHT31;63749;49.186;9.222;2024-02-21T08:35:49;8.97;78.08
75170;SHT31;63749;49.186;9.222;2024-02-21T08:38:15;9.09;78.03
75170;SHT31;63749;49.186;9.222;2024-02-21T08:40:40;9.14;77.91
75170;SHT31;63749;49.186;9.222;2024-02-21T08:43:05;9.22;77.25
75170;SHT31;63749;49.186;9.222;2024-02-21T08:45:31;9.34;77.09
75170;SHT31;63749;49.186;9.222;2024-02-21T08:47:56;9.35;77.59
75170;SHT31;63749;49.186;9.222;2024-02-21T08:50:21;9.27;77.90
75170;SHT31;63749;49.186;9.222;2024-02-21T08:52:47;9.37;77.59
75170;SHT31;63749;49.186;9.222;2024-02-21T08:55:12;9.48;76.85
75170;SHT31;63749;49.186;9.222;2024-02-21T08:57:37;9.48;76.84
75170;SHT31;63749;49.186;9.222;2024-02-21T09:00:04;9.44;77.41
75170;SHT31;63749;49.186;9.222;2024-02-21T09:02:35;9.58;76.83
75170;SHT31;63749;49.186;9.222;2024-02-21T09:05:02;9.57;76.76
75170;SHT31;63749;49.186;9.222;2024-02-21T09:07:27;9.68;76.13
75170;SHT31;63749;49.186;9.222;2024-02-21T09:09:52;9.74;76.41
75170;SHT31;63749;49.186;9.222;2024-02-21T09:12:18;9.70;77.98
75170;SHT31;63749;49.186;9.222;2024-02-21T09:14:43;9.70;76.99
75170;SHT31;63749;49.186;9.222;2024-02-21T09:17:08;9.74;76.78
75170;SHT31;63749;49.186;9.222;2024-02-21T09:19:35;9.75;77.01
75170;SHT31;63749;49.186;9.222;2024-02-21T09:22:00;9.86;76.12
75170;SHT31;63749;49.186;9.222;2024-02-21T09:24:25;9.91;76.22
75170;SHT31;63749;49.186;9.222;2024-02-21T09:26:51;9.85;75.62
75170;SHT31;63749;49.186;9.222;2024-02-21T09:29:16;9.92;75.66
75170;SHT31;63749;49.186;9.222;2024-02-21T09:31:42;10.09;74.63
75170;SHT31;63749;49.186;9.222;2024-02-21T09:34:07;10.09;74.91
75170;SHT31;63749;49.186;9.222;2024-02-21T09:36:32;10.12;75.92
75170;SHT31;63749;49.186;9.222;2024-02-21T09:38:58;10.32;74.84
75170;SHT31;63749;49.186;9.222;2024-02-21T09:41:27;10.40;74.11
75170;SHT31;63749;49.186;9.222;2024-02-21T09:43:53;10.61;72.91
75170;SHT31;63749;49.186;9.222;2024-02-21T09:46:19;10.67;73.67
75170;SHT31;63749;49.186;9.222;2024-02-21T09:51:18;10.90;72.64
75170;SHT31;63749;49.186;9.222;2024-02-21T09:53:44;10.88;72.52
75170;SHT31;63749;49.186;9.222;2024-02-21T09:56:11;10.90;72.02
75170;SHT31;63749;49.186;9.222;2024-02-21T09:58:37;11.12;71.41
75170;SHT31;63749;49.186;9.222;2024-02-21T10:01:03;11.15;71.53
75170;SHT31;63749;49.186;9.222;2024-02-21T10:03:32;11.11;71.53
75170;SHT31;63749;49.186;9.222;2024-02-21T10:05:58;11.26;71.65
75170;SHT31;63749;49.186;9.222;2024-02-21T10:08:26;11.35;70.72
75170;SHT31;63749;49.186;9.222;2024-02-21T10:10:51;11.56;69.40
75170;SHT31;63749;49.186;9.222;2024-02-21T10:13:28;11.65;68.63
75170;SHT31;63749;49.186;9.222;2024-02-21T10:16:07;11.81;68.40
75170;SHT31;63749;49.186;9.222;2024-02-21T10:18:35;11.89;67.71
75170;SHT31;63749;49.186;9.222;2024-02-21T10:21:05;11.98;66.64
75170;SHT31;63749;49.186;9.222;2024-02-21T10:23:50;12.04;66.61
75170;SHT31;63749;49.186;9.222;2024-02-21T10:26:17;12.16;67.01
75170;SHT31;63749;49.186;9.222;2024-02-21T10:28:43;12.18;66.84
75170;SHT31;63749;49.186;9.222;2024-02-21T10:31:10;12.00;65.88
75170;SHT31;63749;49.186;9.222;2024-02-21T10:33:37;12.29;66.39
75170;SHT31;63749;49.186;9.222;2024-02-21T10:36:10;12.24;65.42
75170;SHT31;63749;49.186;9.222;2024-02-21T10:38:39;12.13;66.59
75170;SHT31;63749;49.186;9.222;2024-02-21T10:41:05;12.38;65.32
75170;SHT31;63749;49.186;9.222;2024-02-21T10:43:37;12.60;64.99
75170;SHT31;63749;49.186;9.222;2024-02-21T10:46:06;12.52;66.31
75170;SHT31;63749;49.186;9.222;2024-02-21T10:48:41;12.69;64.55
75170;SHT31;63749;49.186;9.222;2024-02-21T10:51:17;12.66;64.44
75170;SHT31;63749;49.186;9.222;2024-02-21T10:56:26;12.55;64.57
75170;SHT31;63749;49.186;9.222;2024-02-21T10:58:52;12.56;64.61
75170;SHT31;63749;49.186;9.222;2024-02-21T11:01:19;12.65;64.89
75170;SHT31;63749;49.186;9.222;2024-02-21T11:03:46;12.69;64.71
75170;SHT31;63749;49.186;9.222;2024-02-21T11:06:12;12.68;64.47
75170;SHT31;63749;49.186;9.222;2024-02-21T11:08:38;12.65;64.48
75170;SHT31;63749;49.186;9.222;2024-02-21T11:11:04;12.66;65.42
75170;SHT31;63749;49.186;9.222;2024-02-21T11:13:40;12.85;64.24
75170;SHT31;63749;49.186;9.222;2024-02-21T11:16:09;12.87;63.58
75170;SHT31;63749;49.186;9.222;2024-02-21T11:18:37;12.68;63.50
75170;SHT31;63749;49.186;9.222;2024-02-21T11:21:02;12.68;63.56
75170;SHT31;63749;49.186;9.222;2024-02-21T11:23:30;12.85;63.82
75170;SHT31;63749;49.186;9.222;2024-02-21T11:26:08;12.79;63.65
75170;SHT31;63749;49.186;9.222;2024-02-21T11:28:34;12.93;63.96
75170;SHT31;63749;49.186;9.222;2024-02-21T11:31:10;12.82;63.50
75170;SHT31;63749;49.186;9.222;2024-02-21T11:33:42;12.85;63.28
75170;SHT31;63749;49.186;9.222;2024-02-21T11:36:10;12.87;63.36
75170;SHT31;63749;49.186;9.222;2024-02-21T11:38:36;12.99;63.58
75170;SHT31;63749;49.186;9.222;2024-02-21T11:41:01;13.00;63.29
75170;SHT31;63749;49.186;9.222;2024-02-21T11:43:27;13.04;63.67
75170;SHT31;63749;49.186;9.222;2024-02-21T11:46:02;12.95;63.59
75170;SHT31;63749;49.186;9.222;2024-02-21T11:48:29;13.16;63.09
75170;SHT31;63749;49.186;9.222;2024-02-21T11:50:57;13.16;62.58
75170;SHT31;63749;49.186;9.222;2024-02-21T11:53:23;13.27;62.58
75170;SHT31;63749;49.186;9.222;2024-02-21T11:55:49;13.20;62.83
75170;SHT31;63749;49.186;9.222;2024-02-21T11:58:15;13.06;62.93
75170;SHT31;63749;49.186;9.222;2024-02-21T12:00:41;13.02;63.09
75170;SHT31;63749;49.186;9.222;2024-02-21T12:03:07;13.13;63.36
75170;SHT31;63749;49.186;9.222;2024-02-21T12:05:32;13.24;62.26
75170;SHT31;63749;49.186;9.222;2024-02-21T12:07:58;13.16;62.22
75170;SHT31;63749;49.186;9.222;2024-02-21T12:10:25;13.17;63.61
75170;SHT31;63749;49.186;9.222;2024-02-21T12:12:51;13.07;63.78
75170;SHT31;63749;49.186;9.222;2024-02-21T12:15:18;13.27;63.19
75170;SHT31;63749;49.186;9.222;2024-02-21T12:17:44;13.31;62.83
75170;SHT31;63749;49.186;9.222;2024-02-21T12:20:10;13.34;63.02
75170;SHT31;63749;49.186;9.222;2024-02-21T12:22:37;13.28;62.81
75170;SHT31;63749;49.186;9.222;2024-02-21T12:25:04;13.48;61.81
75170;SHT31;63749;49.186;9.222;2024-02-21T12:27:29;13.34;62.16
75170;SHT31;63749;49.186;9.222;2024-02-21T12:29:55;13.38;62.54
75170;SHT31;63749;49.186;9.222;2024-02-21T12:32:20;13.45;62.28
75170;SHT31;63749;49.186;9.222;2024-02-21T12:34:46;13.57;62.23
75170;SHT31;63749;49.186;9.222;2024-02-21T12:37:11;13.58;61.91
75170;SHT31;63749;49.186;9.222;2024-02-21T12:39:41;13.44;62.34
75170;SHT31;63749;49.186;9.222;2024-02-21T12:42:06;13.45;62.35
75170;SHT31;63749;49.186;9.222;2024-02-21T12:44:33;13.69;61.19
75170;SHT31;63749;49.186;9.222;2024-02-21T12:46:59;13.47;61.75
75170;SHT31;63749;49.186;9.222;2024-02-21T12:49:24;13.45;62.05
75170;SHT31;63749;49.186;9.222;2024-02-21T12:51:50;13.43;61.60
75170;SHT31;63749;49.186;9.222;2024-02-21T12:54:15;13.53;61.69
75170;SHT31;63749;49.186;9.222;2024-02-21T12:56:40;13.53;61.53
75170;SHT31;63749;49.186;9.222;2024-02-21T12:59:06;13.44;61.19
75170;SHT31;63749;49.186;9.222;2024-02-21T13:01:35;13.67;61.51
75170;SHT31;63749;49.186;9.222;2024-02-21T13:04:01;13.69;61.68
75170;SHT31;63749;49.186;9.222;2024-02-21T13:06:27;13.53;61.38
75170;SHT31;63749;49.186;9.222;2024-02-21T13:08:53;13.57;61.50
75170;SHT31;63749;49.186;9.222;2024-02-21T13:11:18;13.44;62.61
75170;SHT31;63749;49.186;9.222;2024-02-21T13:13:44;13.54;62.40
75170;SHT31;63749;49.186;9.222;2024-02-21T13:16:09;13.51;62.21
75170;SHT31;63749;49.186;9.222;2024-02-21T13:18:35;13.37;61.38
75170;SHT31;63749;49.186;9.222;2024-02-21T13:21:04;13.45;60.60
75170;SHT31;63749;49.186;9.222;2024-02-21T13:23:29;13.55;61.10
75170;SHT31;63749;49.186;9.222;2024-02-21T13:25:54;13.61;60.33
75170;SHT31;63749;49.186;9.222;2024-02-21T13:28:20;13.67;60.20
75170;SHT31;63749;49.186;9.222;2024-02-21T13:30:45;13.40;62.24
75170;SHT31;63749;49.186;9.222;2024-02-21T13:33:11;13.62;60.25
75170;SHT31;63749;49.186;9.222;2024-02-21T13:35:37;13.68;60.49
75170;SHT31;63749;49.186;9.222;2024-02-21T13:38:03;13.71;60.11
75170;SHT31;63749;49.186;9.222;2024-02-21T13:40:28;13.79;59.90
75170;SHT31;63749;49.186;9.222;2024-02-21T13:42:54;13.79;59.87
75170;SHT31;63749;49.186;9.222;2024-02-21T13:45:20;13.82;59.92
75170;SHT31;63749;49.186;9.222;2024-02-21T13:47:45;13.68;60.99
75170;SHT31;63749;49.186;9.222;2024-02-21T13:50:11;13.57;60.72
75170;SHT31;63749;49.186;9.222;2024-02-21T13:52:42;13.67;59.83
75170;SHT31;63749;49.186;9.222;2024-02-21T13:55:08;13.65;60.48
75170;SHT31;63749;49.186;9.222;2024-02-21T13:57:37;13.50;60.20
75170;SHT31;63749;49.186;9.222;2024-02-21T14:00:04;13.33;60.17
75170;SHT31;63749;49.186;9.222;2024-02-21T14:02:30;13.08;60.60
75170;SHT31;63749;49.186;9.222;2024-02-21T14:04:56;13.13;61.10
75170;SHT31;63749;49.186;9.222;2024-02-21T14:07:21;13.17;60.66
75170;SHT31;63749;49.186;9.222;2024-02-21T14:09:47;12.95;61.18
75170;SHT31;63749;49.186;9.222;2024-02-21T14:12:12;13.02;61.30
75170;SHT31;63749;49.186;9.222;2024-02-21T14:14:37;12.92;61.59
75170;SHT31;63749;49.186;9.222;2024-02-21T14:17:03;12.89;61.95
75170;SHT31;63749;49.186;9.222;2024-02-21T14:19:29;12.89;62.03
75170;SHT31;63749;49.186;9.222;2024-02-21T14:21:54;12.76;62.44
75170;SHT31;63749;49.186;9.222;2024-02-21T14:24:20;12.80;62.84
75170;SHT31;63749;49.186;9.222;2024-02-21T14:26:45;12.80;62.49
75170;SHT31;63749;49.186;9.222;2024-02-21T14:29:11;12.68;63.27
75170;SHT31;63749;49.186;9.222;2024-02-21T14:31:37;12.68;63.80
75170;SHT31;63749;49.186;9.222;2024-02-21T14:34:03;12.80;63.10
75170;SHT31;63749;49.186;9.222;2024-02-21T14:36:28;12.82;62.59
75170;SHT31;63749;49.186;9.222;2024-02-21T14:38:54;12.87;62.84
75170;SHT31;63749;49.186;9.222;2024-02-21T14:41:19;12.86;62.92
75170;SHT31;63749;49.186;9.222;2024-02-21T14:43:44;12.93;63.02
75170;SHT31;63749;49.186;9.222;2024-02-21T14:46:10;12.75;63.68
75170;SHT31;63749;49.186;9.222;2024-02-21T14:48:37;12.72;63.43
75170;SHT31;63749;49.186;9.222;2024-02-21T14:51:02;12.79;63.71
75170;SHT31;63749;49.186;9.222;2024-02-21T14:53:29;12.72;63.98
75170;SHT31;63749;49.186;9.222;2024-02-21T14:55:55;12.72;64.14
75170;SHT31;63749;49.186;9.222;2024-02-21T14:58:21;12.80;64.03
75170;SHT31;63749;49.186;9.222;2024-02-21T15:00:46;12.96;63.73
75170;SHT31;63749;49.186;9.222;2024-02-21T15:03:12;12.99;62.64
75170;SHT31;63749;49.186;9.222;2024-02-21T15:05:40;13.04;63.62
75170;SHT31;63749;49.186;9.222;2024-02-21T15:08:06;13.10;62.99
75170;SHT31;63749;49.186;9.222;2024-02-21T15:10:34;13.18;59.73
75170;SHT31;63749;49.186;9.222;2024-02-21T15:13:00;13.18;59.91
75170;SHT31;63749;49.186;9.222;2024-02-21T15:15:25;13.07;60.66
75170;SHT31;63749;49.186;9.222;2024-02-21T15:17:50;13.17;59.72
75170;SHT31;63749;49.186;9.222;2024-02-21T15:20:16;12.99;61.12
75170;SHT31;63749;49.186;9.222;2024-02-21T15:22:41;12.80;60.18
75170;SHT31;63749;49.186;9.222;2024-02-21T15:25:07;12.65;60.58
75170;SHT31;63749;49.186;9.222;2024-02-21T15:27:38;12.70;60.81
75170;SHT31;63749;49.186;9.222;2024-02-21T15:30:04;12.75;60.71
75170;SHT31;63749;49.186;9.222;2024-02-21T15:32:29;12.68;61.61
75170;SHT31;63749;49.186;9.222;2024-02-21T15:34:54;12.63;61.71
75170;SHT31;63749;49.186;9.222;2024-02-21T15:37:20;12.49;62.30
75170;SHT31;63749;49.186;9.222;2024-02-21T15:39:45;12.44;62.81
75170;SHT31;63749;49.186;9.222;2024-02-21T15:42:11;12.34;62.96